createdAt,value
2022-08-03T00:00:16.090Z,7.83
2022-08-03T00:02:48.390Z,8.10
2022-08-03T00:05:20.808Z,8.07
2022-08-03T00:07:53.000Z,7.50
2022-08-03T00:10:25.420Z,7.53
2022-08-03T00:12:57.719Z,7.40
2022-08-03T00:15:30.023Z,7.60
2022-08-03T00:18:02.322Z,7.80
2022-08-03T00:20:34.727Z,7.83
2022-08-03T00:23:06.918Z,7.60
2022-08-03T00:25:39.160Z,7.00
2022-08-03T00:28:11.868Z,7.80
2022-08-03T00:30:44.206Z,7.30
2022-08-03T00:33:17.077Z,6.90
2022-08-03T00:35:50.935Z,7.93
2022-08-03T00:38:23.432Z,7.10
2022-08-03T00:40:56.524Z,8.33
2022-08-03T00:43:28.642Z,7.63
2022-08-03T00:46:00.855Z,7.60
2022-08-03T00:48:33.885Z,8.43
2022-08-03T00:51:06.958Z,8.77
2022-08-03T00:53:39.877Z,7.73
2022-08-03T00:56:16.092Z,8.27
2022-08-03T00:58:48.579Z,7.90
2022-08-03T01:01:20.765Z,7.63
2022-08-03T01:03:53.134Z,7.83
2022-08-03T01:07:10.728Z,8.43
2022-08-03T01:10:07.495Z,8.00
2022-08-03T01:12:52.747Z,7.70
2022-08-03T01:15:55.373Z,8.10
2022-08-03T01:18:32.993Z,7.97
2022-08-03T01:21:11.139Z,7.43
2022-08-03T01:23:57.519Z,7.90
2022-08-03T01:26:39.035Z,8.57
2022-08-03T01:29:36.017Z,7.50
2022-08-03T01:32:53.242Z,7.77
2022-08-03T01:35:27.441Z,7.60
2022-08-03T01:38:05.310Z,7.73
2022-08-03T01:40:40.218Z,8.20
2022-08-03T01:43:15.690Z,8.33
2022-08-03T01:46:09.038Z,8.77
2022-08-03T01:48:43.052Z,8.63
2022-08-03T01:51:17.348Z,8.90
2022-08-03T01:53:51.283Z,8.70
2022-08-03T01:56:25.199Z,8.27
2022-08-03T01:58:59.128Z,7.80
2022-08-03T02:02:28.733Z,9.37
2022-08-03T02:04:26.014Z,8.20
2022-08-03T02:07:01.874Z,8.10
2022-08-03T02:09:38.290Z,8.83
2022-08-03T02:12:11.491Z,9.37
2022-08-03T02:14:44.779Z,9.43
2022-08-03T02:17:17.276Z,9.03
2022-08-03T02:19:50.909Z,8.93
2022-08-03T02:22:25.332Z,9.00
2022-08-03T02:24:57.875Z,9.00
2022-08-03T02:27:32.465Z,9.00
2022-08-03T02:30:09.223Z,9.10
2022-08-03T02:32:43.972Z,9.27
2022-08-03T02:35:28.535Z,8.87
2022-08-03T02:38:04.595Z,9.77
2022-08-03T02:40:37.288Z,9.70
2022-08-03T02:43:12.411Z,9.00
2022-08-03T02:45:47.269Z,9.63
2022-08-03T02:48:23.510Z,9.83
2022-08-03T02:50:57.652Z,10.23
2022-08-03T02:53:32.738Z,9.30
2022-08-03T02:56:05.870Z,10.33
2022-08-03T02:58:39.578Z,9.03
2022-08-03T03:01:12.871Z,9.90
2022-08-03T03:03:45.440Z,11.00
2022-08-03T03:06:21.673Z,9.83
2022-08-03T03:08:59.641Z,9.13
2022-08-03T03:11:32.678Z,9.97
2022-08-03T03:14:05.821Z,9.67
2022-08-03T03:16:42.328Z,9.40
2022-08-03T03:19:14.777Z,9.50
2022-08-03T03:21:47.577Z,9.60
2022-08-03T03:24:20.181Z,10.00
2022-08-03T03:26:52.956Z,9.60
2022-08-03T03:29:25.235Z,9.50
2022-08-03T03:31:57.823Z,10.53
2022-08-03T03:34:30.758Z,10.10
2022-08-03T03:37:03.209Z,10.10
2022-08-03T03:39:36.614Z,9.83
2022-08-03T03:42:09.185Z,10.20
2022-08-03T03:44:41.435Z,10.67
2022-08-03T03:47:13.854Z,12.73
2022-08-03T03:49:46.891Z,12.30
2022-08-03T03:52:20.653Z,10.40
2022-08-03T03:54:55.405Z,11.97
2022-08-03T03:57:31.240Z,10.33
2022-08-03T04:00:04.572Z,9.90
2022-08-03T04:02:36.867Z,9.93
2022-08-03T04:05:28.421Z,10.43
2022-08-03T04:08:22.057Z,10.33
2022-08-03T04:11:42.557Z,10.53
2022-08-03T04:14:29.202Z,10.07
2022-08-03T04:17:06.163Z,10.37
2022-08-03T04:19:48.091Z,10.30
2022-08-03T04:22:23.087Z,10.40
2022-08-03T04:25:08.375Z,10.90
2022-08-03T04:27:41.757Z,9.50
2022-08-03T04:30:14.669Z,10.97
2022-08-03T04:32:52.079Z,10.33
2022-08-03T04:35:26.034Z,10.40
2022-08-03T04:38:19.709Z,10.40
2022-08-03T04:40:53.075Z,12.27
2022-08-03T04:43:26.203Z,10.03
2022-08-03T04:45:59.711Z,11.43
2022-08-03T04:48:32.491Z,11.13
2022-08-03T04:51:06.259Z,10.10
2022-08-03T04:53:39.735Z,11.23
2022-08-03T04:56:12.358Z,11.30
2022-08-03T04:58:44.926Z,11.10
2022-08-03T05:01:17.727Z,10.63
2022-08-03T05:03:50.500Z,10.97
2022-08-03T05:06:25.015Z,15.43
2022-08-03T05:08:57.424Z,11.10
2022-08-03T05:11:32.575Z,11.30
2022-08-03T05:14:05.073Z,12.20
2022-08-03T05:16:37.311Z,11.23
2022-08-03T05:19:09.807Z,10.03
2022-08-03T05:21:52.691Z,11.23
2022-08-03T05:24:27.199Z,10.13
2022-08-03T05:26:59.306Z,10.80
2022-08-03T05:29:31.565Z,11.40
2022-08-03T05:32:08.155Z,9.50
2022-08-03T05:34:40.819Z,10.63
2022-08-03T05:37:13.152Z,13.00
2022-08-03T05:39:45.325Z,11.90
2022-08-03T05:42:18.023Z,11.03
2022-08-03T05:44:50.496Z,11.30
2022-08-03T05:47:23.739Z,10.93
2022-08-03T05:49:55.911Z,10.07
2022-08-03T05:52:28.128Z,11.00
2022-08-03T05:55:00.684Z,10.70
2022-08-03T05:57:33.065Z,11.10
2022-08-03T06:00:07.688Z,10.50
2022-08-03T06:02:44.247Z,11.63
2022-08-03T06:05:16.639Z,10.87
2022-08-03T06:07:48.936Z,10.37
2022-08-03T06:10:36.216Z,10.37
2022-08-03T06:13:10.326Z,10.47
2022-08-03T06:15:42.588Z,9.80
2022-08-03T06:18:14.784Z,10.47
2022-08-03T06:20:49.310Z,10.00
2022-08-03T06:23:52.866Z,10.97
2022-08-03T06:26:17.263Z,9.90
2022-08-03T06:28:53.016Z,12.13
2022-08-03T06:31:32.826Z,10.60
2022-08-03T06:34:33.361Z,11.90
2022-08-03T06:37:01.951Z,11.83
2022-08-03T06:39:37.462Z,12.50
2022-08-03T06:42:10.622Z,10.53
2022-08-03T06:44:43.455Z,10.13
2022-08-03T06:47:15.605Z,10.63
2022-08-03T06:50:12.772Z,11.33
2022-08-03T06:52:40.297Z,12.50
2022-08-03T06:55:12.497Z,11.43
2022-08-03T06:57:44.721Z,10.30
2022-08-03T07:00:18.100Z,10.40
2022-08-03T07:02:53.600Z,10.30
2022-08-03T07:05:28.714Z,8.60
2022-08-03T07:08:03.276Z,8.97
2022-08-03T07:10:35.458Z,8.17
2022-08-03T07:13:07.718Z,9.40
2022-08-03T07:15:55.385Z,7.77
2022-08-03T07:18:29.871Z,7.57
2022-08-03T07:21:02.384Z,8.00
2022-08-03T07:23:34.731Z,7.27
2022-08-03T07:26:06.956Z,6.80
2022-08-03T07:28:39.251Z,7.20
2022-08-03T07:31:11.493Z,7.20
2022-08-03T07:33:43.676Z,7.17
2022-08-03T07:36:16.100Z,5.57
2022-08-03T07:38:48.248Z,4.87
2022-08-03T07:41:20.448Z,5.40
2022-08-03T07:43:52.635Z,5.70
2022-08-03T07:46:24.896Z,5.07
2022-08-03T07:48:59.207Z,4.73
2022-08-03T07:51:32.513Z,3.53
2022-08-03T07:54:05.149Z,4.37
2022-08-03T07:56:37.737Z,4.30
2022-08-03T07:59:10.142Z,4.10
2022-08-03T08:01:42.688Z,3.90
2022-08-03T08:04:14.930Z,4.17
2022-08-03T08:06:47.182Z,4.30
2022-08-03T08:09:19.364Z,4.17
2022-08-03T08:11:51.527Z,3.57
2022-08-03T08:14:23.847Z,3.70
2022-08-03T08:16:56.252Z,3.73
2022-08-03T08:19:28.552Z,4.10
2022-08-03T08:22:04.709Z,5.07
2022-08-03T08:24:37.853Z,4.53
2022-08-03T08:27:12.300Z,4.30
2022-08-03T08:29:47.960Z,4.43
2022-08-03T08:32:27.631Z,3.87
2022-08-03T08:34:59.949Z,5.37
2022-08-03T08:37:32.792Z,4.00
2022-08-03T08:40:06.640Z,2.97
2022-08-03T08:42:57.571Z,3.10
2022-08-03T08:45:31.018Z,3.37
2022-08-03T08:48:07.934Z,3.50
2022-08-03T08:50:40.691Z,3.57
2022-08-03T08:53:18.100Z,3.80
2022-08-03T08:55:58.828Z,4.17
2022-08-03T08:58:38.687Z,3.80
2022-08-03T09:01:11.129Z,3.13
2022-08-03T09:03:43.296Z,3.83
2022-08-03T09:06:16.194Z,3.40
2022-08-03T09:08:48.423Z,3.63
2022-08-03T09:11:53.692Z,3.70
2022-08-03T09:14:39.166Z,4.10
2022-08-03T09:17:16.989Z,3.30
2022-08-03T09:20:09.286Z,3.77
2022-08-03T09:23:20.224Z,3.80
2022-08-03T09:26:01.715Z,3.70
2022-08-03T09:29:01.152Z,3.70
2022-08-03T09:31:32.176Z,3.17
2022-08-03T09:34:05.900Z,3.57
2022-08-03T09:36:46.700Z,4.13
2022-08-03T09:39:40.313Z,3.47
2022-08-03T09:42:23.970Z,3.70
2022-08-03T09:44:58.037Z,3.57
2022-08-03T09:47:32.700Z,3.33
2022-08-03T09:50:08.941Z,3.87
2022-08-03T09:52:51.905Z,3.93
2022-08-03T09:56:33.688Z,3.87
2022-08-03T09:58:17.303Z,3.00
2022-08-03T10:01:04.306Z,3.37
2022-08-03T10:04:02.818Z,3.10
2022-08-03T10:06:31.907Z,3.30
2022-08-03T10:09:16.148Z,3.60
2022-08-03T10:11:49.466Z,3.23
2022-08-03T10:14:22.708Z,3.00
2022-08-03T10:16:54.913Z,3.17
2022-08-03T10:19:27.378Z,3.80
2022-08-03T10:22:19.930Z,3.07
2022-08-03T10:25:05.478Z,3.23
2022-08-03T10:27:40.357Z,3.20
2022-08-03T10:30:13.297Z,3.60
2022-08-03T10:33:49.864Z,3.40
2022-08-03T10:36:12.811Z,3.20
2022-08-03T10:38:52.533Z,3.23
2022-08-03T10:41:27.264Z,3.40
2022-08-03T10:44:10.329Z,3.40
2022-08-03T10:46:45.216Z,3.30
2022-08-03T10:49:34.640Z,3.57
2022-08-03T10:52:13.365Z,2.83
2022-08-03T10:55:18.803Z,2.73
2022-08-03T10:57:58.294Z,3.13
2022-08-03T11:00:49.411Z,2.90
2022-08-03T11:03:21.880Z,2.87
2022-08-03T11:06:15.498Z,2.90
2022-08-03T11:08:49.402Z,3.57
2022-08-03T11:11:32.153Z,3.47
2022-08-03T11:14:05.927Z,3.30
2022-08-03T11:16:45.298Z,3.43
2022-08-03T11:19:22.639Z,3.30
2022-08-03T11:22:00.144Z,3.67
2022-08-03T11:24:41.143Z,3.37
2022-08-03T11:27:16.401Z,3.23
2022-08-03T11:30:19.426Z,3.43
2022-08-03T11:32:53.111Z,3.27
2022-08-03T11:35:30.550Z,3.00
2022-08-03T11:38:05.543Z,3.70
2022-08-03T11:40:54.624Z,3.20
2022-08-03T11:43:35.154Z,3.13
2022-08-03T11:46:09.082Z,3.17
2022-08-03T11:48:43.705Z,3.00
2022-08-03T11:51:20.694Z,2.77
2022-08-03T11:53:57.648Z,2.60
2022-08-03T11:56:48.124Z,2.90
2022-08-03T11:59:32.589Z,2.30
2022-08-03T12:02:12.094Z,3.33
2022-08-03T12:05:01.596Z,2.30
2022-08-03T12:08:03.642Z,2.57
2022-08-03T12:10:26.562Z,3.20
2022-08-03T12:13:02.065Z,2.77
2022-08-03T12:15:35.202Z,2.73
2022-08-03T12:18:17.903Z,2.73
2022-08-03T12:20:51.972Z,2.30
2022-08-03T12:23:27.404Z,3.30
2022-08-03T12:26:06.980Z,3.80
2022-08-03T12:28:49.758Z,2.73
2022-08-03T12:31:22.503Z,3.00
2022-08-03T12:33:56.371Z,2.90
2022-08-03T12:36:30.603Z,2.60
2022-08-03T12:39:05.909Z,2.83
2022-08-03T12:41:40.923Z,2.67
2022-08-03T12:44:13.710Z,3.20
2022-08-03T12:46:48.072Z,2.87
2022-08-03T12:49:20.790Z,2.70
2022-08-03T12:51:52.843Z,2.50
2022-08-03T12:54:28.038Z,3.07
2022-08-03T12:57:07.197Z,3.23
2022-08-03T12:59:53.314Z,3.60
2022-08-03T13:02:27.644Z,3.60
2022-08-03T13:05:13.122Z,2.60
2022-08-03T13:07:47.418Z,2.90
2022-08-03T13:10:31.347Z,2.40
2022-08-03T13:13:04.766Z,3.20
2022-08-03T13:15:47.541Z,2.67
2022-08-03T13:18:20.544Z,2.50
2022-08-03T13:20:52.910Z,2.93
2022-08-03T13:23:25.344Z,3.97
2022-08-03T13:25:57.821Z,2.60
2022-08-03T13:28:30.318Z,3.73
2022-08-03T13:31:02.707Z,2.70
2022-08-03T13:33:36.932Z,2.83
2022-08-03T13:36:09.203Z,3.27
2022-08-03T13:38:41.483Z,3.90
2022-08-03T13:41:16.278Z,2.83
2022-08-03T13:44:01.717Z,3.10
2022-08-03T13:46:42.564Z,2.80
2022-08-03T13:49:15.043Z,2.80
2022-08-03T13:51:47.354Z,3.30
2022-08-03T13:54:19.738Z,3.20
2022-08-03T13:56:57.801Z,3.90
2022-08-03T13:59:33.159Z,2.73
2022-08-03T14:02:05.668Z,2.60
2022-08-03T14:04:38.039Z,2.77
2022-08-03T14:07:10.511Z,2.97
2022-08-03T14:09:43.058Z,2.73
2022-08-03T14:12:15.579Z,2.70
2022-08-03T14:14:47.827Z,3.30
2022-08-03T14:17:23.046Z,2.67
2022-08-03T14:19:55.923Z,3.40
2022-08-03T14:22:30.187Z,2.97
2022-08-03T14:25:02.616Z,3.37
2022-08-03T14:27:37.172Z,3.53
2022-08-03T14:30:10.056Z,2.80
2022-08-03T14:32:42.748Z,2.60
2022-08-03T14:35:14.964Z,3.30
2022-08-03T14:37:47.176Z,3.23
2022-08-03T14:40:20.448Z,2.60
2022-08-03T14:42:53.523Z,3.10
2022-08-03T14:45:26.025Z,3.00
2022-08-03T14:50:28.836Z,2.97
2022-08-03T14:50:52.949Z,2.70
2022-08-03T14:53:25.291Z,2.97
2022-08-03T14:55:57.580Z,2.70
2022-08-03T14:58:29.867Z,3.10
2022-08-03T15:01:02.344Z,3.00
2022-08-03T15:03:35.111Z,2.47
2022-08-03T15:06:07.259Z,2.43
2022-08-03T15:08:39.731Z,2.57
2022-08-03T15:11:11.978Z,3.80
2022-08-03T15:13:44.354Z,3.27
2022-08-03T15:16:16.685Z,3.40
2022-08-03T15:18:49.046Z,2.83
2022-08-03T15:21:46.162Z,2.63
2022-08-03T15:24:14.037Z,3.10
2022-08-03T15:26:46.323Z,3.57
2022-08-03T15:30:06.831Z,5.20
2022-08-03T15:32:11.651Z,2.90
2022-08-03T15:34:50.247Z,3.07
2022-08-03T15:37:25.742Z,3.40
2022-08-03T15:40:00.329Z,3.10
2022-08-03T15:42:33.634Z,3.33
2022-08-03T15:45:06.701Z,3.20
2022-08-03T15:47:39.569Z,3.00
2022-08-03T15:50:12.159Z,2.83
2022-08-03T15:52:44.403Z,3.30
2022-08-03T15:55:17.366Z,3.90
2022-08-03T15:59:09.527Z,3.23
2022-08-03T16:00:42.889Z,2.70
2022-08-03T16:03:15.318Z,2.93
2022-08-03T16:05:47.779Z,2.90
2022-08-03T16:08:20.479Z,2.80
2022-08-03T16:10:52.808Z,3.30
2022-08-03T16:14:05.537Z,2.70
2022-08-03T16:16:18.209Z,2.73
2022-08-03T16:18:50.580Z,3.00
2022-08-03T16:21:22.940Z,3.30
2022-08-03T16:24:01.979Z,3.00
2022-08-03T16:26:37.960Z,3.00
2022-08-03T16:29:22.327Z,2.90
2022-08-03T16:31:55.836Z,2.40
2022-08-03T16:34:28.110Z,2.97
2022-08-03T16:37:11.720Z,3.40
2022-08-03T16:39:52.680Z,3.53
2022-08-03T16:42:25.009Z,4.03
2022-08-03T16:44:57.195Z,3.30
2022-08-03T16:47:29.971Z,2.60
2022-08-03T16:50:07.267Z,3.80
2022-08-03T16:52:47.319Z,3.03
2022-08-03T16:55:51.727Z,4.43
2022-08-03T16:58:15.206Z,3.17
2022-08-03T17:00:49.602Z,2.77
2022-08-03T17:03:24.381Z,3.00
2022-08-03T17:05:59.474Z,3.07
2022-08-03T17:08:32.508Z,2.90
2022-08-03T17:11:05.029Z,2.37
2022-08-03T17:13:39.822Z,3.10
2022-08-03T17:16:15.453Z,3.57
2022-08-03T17:18:55.073Z,3.43
2022-08-03T17:21:29.702Z,2.80
2022-08-03T17:24:21.230Z,2.90
2022-08-03T17:27:01.657Z,2.73
2022-08-03T17:29:37.099Z,4.10
2022-08-03T17:32:21.779Z,3.20
2022-08-03T17:34:54.785Z,2.70
2022-08-03T17:37:57.592Z,2.83
2022-08-03T17:40:19.636Z,3.90
2022-08-03T17:42:55.209Z,3.10
2022-08-03T17:45:52.100Z,3.37
2022-08-03T17:48:20.841Z,3.80
2022-08-03T17:51:26.587Z,3.30
2022-08-03T17:54:06.124Z,4.37
2022-08-03T17:57:22.522Z,4.43
2022-08-03T18:00:26.599Z,3.67
2022-08-03T18:03:20.913Z,3.33
2022-08-03T18:06:10.468Z,3.10
2022-08-03T18:08:52.433Z,3.70
2022-08-03T18:11:35.517Z,3.40
2022-08-03T18:14:17.091Z,3.33
2022-08-03T18:17:10.307Z,3.00
2022-08-03T18:20:02.551Z,3.53
2022-08-03T18:22:36.229Z,3.33
2022-08-03T18:25:09.296Z,6.30
2022-08-03T18:27:47.728Z,3.40
2022-08-03T18:30:20.510Z,4.97
2022-08-03T18:34:16.977Z,3.90
2022-08-03T18:35:55.712Z,3.80
2022-08-03T18:38:28.768Z,4.40
2022-08-03T18:41:02.026Z,4.87
2022-08-03T18:43:46.648Z,4.30
2022-08-03T18:46:48.587Z,3.13
2022-08-03T18:49:33.371Z,3.57
2022-08-03T18:52:17.975Z,4.63
2022-08-03T18:55:09.491Z,4.17
2022-08-03T18:58:15.786Z,4.27
2022-08-03T19:01:04.861Z,5.27
2022-08-03T19:03:50.251Z,5.20
2022-08-03T19:06:24.562Z,4.67
2022-08-03T19:09:24.579Z,3.90
2022-08-03T19:12:14.534Z,4.20
2022-08-03T19:15:04.363Z,3.57
2022-08-03T19:17:50.212Z,3.90
2022-08-03T19:20:27.171Z,4.17
2022-08-03T19:23:01.212Z,4.20
2022-08-03T19:25:38.636Z,4.20
2022-08-03T19:28:12.831Z,4.43
2022-08-03T19:30:46.501Z,5.40
2022-08-03T19:33:29.955Z,4.30
2022-08-03T19:36:03.298Z,4.63
2022-08-03T19:38:38.437Z,5.30
2022-08-03T19:41:14.096Z,4.63
2022-08-03T19:43:57.748Z,4.10
2022-08-03T19:46:35.147Z,5.00
2022-08-03T19:49:16.243Z,4.37
2022-08-03T19:51:59.382Z,4.87
2022-08-03T19:54:39.600Z,4.10
2022-08-03T19:57:33.456Z,5.10
2022-08-03T20:00:08.246Z,4.33
2022-08-03T20:02:41.328Z,3.40
2022-08-03T20:05:15.305Z,5.13
2022-08-03T20:07:48.645Z,3.27
2022-08-03T20:10:21.619Z,4.70
2022-08-03T20:12:54.499Z,4.47
2022-08-03T20:15:31.901Z,3.73
2022-08-03T20:18:04.556Z,4.13
2022-08-03T20:20:37.965Z,4.53
2022-08-03T20:23:17.242Z,3.80
2022-08-03T20:26:00.742Z,3.60
2022-08-03T20:28:51.142Z,5.57
2022-08-03T20:31:32.602Z,5.00
2022-08-03T20:34:09.152Z,5.00
2022-08-03T20:36:41.815Z,4.43
2022-08-03T20:39:14.128Z,4.47
2022-08-03T20:41:46.497Z,4.20
2022-08-03T20:44:18.724Z,4.70
2022-08-03T20:47:00.694Z,4.60
2022-08-03T20:49:45.597Z,3.80
2022-08-03T20:52:19.322Z,4.27
2022-08-03T20:54:52.814Z,4.03
2022-08-03T20:57:25.829Z,4.83
2022-08-03T21:00:17.880Z,4.43
2022-08-03T21:02:50.415Z,4.70
2022-08-03T21:08:15.808Z,4.73
2022-08-03T21:10:49.031Z,4.37
2022-08-03T21:13:13.764Z,5.50
2022-08-03T21:13:32.006Z,4.80
2022-08-03T21:16:13.854Z,4.80
2022-08-03T21:18:51.970Z,5.97
2022-08-03T21:21:24.528Z,4.40
2022-08-03T21:23:59.256Z,4.63
2022-08-03T21:26:33.760Z,5.10
2022-08-03T21:29:06.520Z,6.20
2022-08-03T21:31:39.467Z,4.30
2022-08-03T21:34:11.762Z,4.73
2022-08-03T21:36:44.336Z,5.13
2022-08-03T21:39:16.532Z,5.00
2022-08-03T21:41:48.791Z,4.40
2022-08-03T21:44:28.717Z,4.33
2022-08-03T21:47:02.489Z,5.00
2022-08-03T21:50:06.082Z,4.20
2022-08-03T21:52:29.322Z,4.77
2022-08-03T21:55:05.293Z,5.00
2022-08-03T21:57:39.852Z,5.10
2022-08-03T22:00:17.174Z,4.30
2022-08-03T22:02:55.440Z,4.10
2022-08-03T22:05:42.494Z,4.13
2022-08-03T22:08:15.603Z,3.70
2022-08-03T22:10:49.079Z,4.70
2022-08-03T22:13:44.209Z,5.57
2022-08-03T22:16:14.792Z,4.93
2022-08-03T22:18:47.235Z,5.00
2022-08-03T22:21:27.657Z,4.73
2022-08-03T22:24:08.864Z,5.10
2022-08-03T22:27:01.831Z,4.30
2022-08-03T22:29:37.241Z,5.83
2022-08-03T22:32:10.419Z,4.73
2022-08-03T22:34:43.239Z,4.57
2022-08-03T22:37:20.460Z,5.27
2022-08-03T22:39:55.650Z,5.20
2022-08-03T22:42:27.991Z,4.73
2022-08-03T22:45:02.233Z,4.60
2022-08-03T22:47:36.600Z,4.90
2022-08-03T22:50:31.421Z,4.37
2022-08-03T22:53:03.819Z,6.13
2022-08-03T22:55:36.669Z,4.80
2022-08-03T22:58:09.522Z,4.47
2022-08-03T23:00:48.383Z,4.60
2022-08-03T23:04:00.176Z,4.07
2022-08-03T23:06:20.138Z,5.07
2022-08-03T23:08:52.786Z,4.43
2022-08-03T23:11:25.872Z,4.77
2022-08-03T23:13:59.625Z,6.80
2022-08-03T23:16:36.666Z,5.30
2022-08-03T23:19:17.118Z,5.10
2022-08-03T23:22:01.108Z,4.83
2022-08-03T23:24:36.961Z,5.17
2022-08-03T23:27:09.590Z,5.10
2022-08-03T23:29:42.932Z,4.80
2022-08-03T23:32:15.635Z,4.90
2022-08-03T23:35:07.262Z,4.90
2022-08-03T23:38:04.333Z,5.50
2022-08-03T23:40:33.509Z,5.70
2022-08-03T23:43:05.812Z,5.87
2022-08-03T23:45:39.661Z,7.00
2022-08-03T23:48:12.558Z,5.40
2022-08-03T23:50:46.695Z,5.90
2022-08-03T23:53:26.259Z,7.30
2022-08-03T23:56:27.824Z,5.30
2022-08-03T23:59:16.141Z,5.00
